Terminal Aerodrome Forecast
Issued by NWS

Home | Current Version | Previous Version | Text Only | Print | Product List | Glossary On
Versions: 1 2 3 4 5 6 7 8 9 10 11 12 13 14 15 16 17 18 19
000
FTAK31 PANC 050533
TAFACD
TAF
PACD 050533Z 0506/0606 02014KT P6SM VCSH BKN035
     FM051000 34014KT P6SM VCSH BKN025
     FM051800 33023G29KT P6SM BKN025=

USA.gov is the U.S. government's official web portal to all federal, state and local government web resources and services.